createdAt,value
2022-09-06T00:00:18.287Z,97.90
2022-09-06T00:02:46.039Z,97.90
2022-09-06T00:05:14.338Z,98.00
2022-09-06T00:07:41.959Z,98.00
2022-09-06T00:10:10.501Z,98.00
2022-09-06T00:12:38.448Z,98.10
2022-09-06T00:15:06.661Z,98.10
2022-09-06T00:17:34.457Z,98.10
2022-09-06T00:20:02.424Z,98.30
2022-09-06T00:22:29.614Z,98.30
2022-09-06T00:24:57.195Z,98.30
2022-09-06T00:27:24.464Z,98.50
2022-09-06T00:29:51.565Z,98.60
2022-09-06T00:32:18.695Z,98.50
2022-09-06T00:34:46.244Z,98.60
2022-09-06T00:37:13.460Z,98.50
2022-09-06T00:39:40.707Z,98.80
2022-09-06T00:42:12.227Z,98.80
2022-09-06T00:44:40.441Z,98.90
2022-09-06T00:47:08.894Z,98.90
2022-09-06T00:49:44.252Z,98.90
2022-09-06T00:52:17.186Z,99.00
2022-09-06T00:54:44.560Z,99.00
2022-09-06T00:57:12.863Z,99.00
2022-09-06T00:59:41.712Z,99.00
2022-09-06T01:02:09.780Z,98.80
2022-09-06T01:04:39.861Z,98.80
2022-09-06T01:07:14.405Z,98.80
2022-09-06T01:10:01.750Z,98.90
2022-09-06T01:12:38.000Z,99.00
2022-09-06T01:15:38.505Z,99.00
2022-09-06T01:18:14.262Z,99.00
2022-09-06T01:20:44.490Z,99.10
2022-09-06T01:23:29.881Z,99.20
2022-09-06T01:26:30.408Z,99.20
2022-09-06T01:28:58.363Z,99.30
2022-09-06T01:31:41.629Z,99.30
2022-09-06T01:34:08.714Z,99.20
2022-09-06T01:36:49.675Z,99.10
2022-09-06T01:39:33.493Z,99.10
2022-09-06T01:42:06.467Z,99.20
2022-09-06T01:44:35.334Z,99.30
2022-09-06T01:47:22.288Z,99.50
2022-09-06T01:50:28.512Z,99.60
2022-09-06T01:53:01.903Z,99.40
2022-09-06T01:55:50.043Z,99.40
2022-09-06T01:58:26.585Z,99.40
2022-09-06T02:01:08.610Z,99.50
2022-09-06T02:04:14.861Z,99.50
2022-09-06T02:06:47.234Z,99.50
2022-09-06T02:09:23.617Z,99.50
2022-09-06T02:11:58.654Z,99.60
2022-09-06T02:14:35.393Z,99.60
2022-09-06T02:17:05.775Z,99.50
2022-09-06T02:19:47.733Z,99.50
2022-09-06T02:22:19.789Z,99.50
2022-09-06T02:24:50.760Z,99.20
2022-09-06T02:27:18.215Z,99.10
2022-09-06T02:29:45.386Z,99.00
2022-09-06T02:32:23.156Z,99.00
2022-09-06T02:34:55.604Z,99.00
2022-09-06T02:37:26.642Z,99.30
2022-09-06T02:39:56.094Z,99.30
2022-09-06T02:42:24.937Z,99.40
2022-09-06T02:44:52.052Z,99.40
2022-09-06T02:47:19.164Z,99.40
2022-09-06T02:49:46.414Z,99.40
2022-09-06T02:52:13.623Z,99.40
2022-09-06T02:54:40.717Z,99.50
2022-09-06T02:57:07.941Z,99.30
2022-09-06T02:59:35.134Z,99.30
2022-09-06T03:02:02.570Z,99.30
2022-09-06T03:04:30.043Z,99.40
2022-09-06T03:06:57.280Z,99.40
2022-09-06T03:09:25.175Z,99.60
2022-09-06T03:11:52.445Z,99.80
2022-09-06T03:14:20.035Z,99.90
2022-09-06T03:16:47.271Z,99.80
2022-09-06T03:19:14.629Z,99.80
2022-09-06T03:21:41.832Z,99.80
2022-09-06T03:24:08.924Z,99.90
2022-09-06T03:26:36.125Z,99.90
2022-09-06T03:29:03.229Z,99.90
2022-09-06T03:31:30.325Z,99.90
2022-09-06T03:33:57.604Z,99.90
2022-09-06T03:36:24.754Z,99.90
2022-09-06T03:38:53.995Z,99.90
2022-09-06T03:41:21.303Z,99.90
2022-09-06T03:43:48.623Z,99.90
2022-09-06T03:46:15.928Z,99.90
2022-09-06T03:48:43.418Z,99.90
2022-09-06T03:51:10.571Z,99.90
2022-09-06T03:53:37.664Z,99.90
2022-09-06T03:56:05.146Z,99.90
2022-09-06T03:58:33.015Z,99.90
2022-09-06T04:01:09.002Z,99.90
2022-09-06T04:03:37.089Z,99.90
2022-09-06T04:06:05.410Z,99.90
2022-09-06T04:08:33.668Z,99.90
2022-09-06T04:11:00.944Z,99.80
2022-09-06T04:13:29.596Z,99.70
2022-09-06T04:15:57.580Z,99.70
2022-09-06T04:18:25.217Z,99.80
2022-09-06T04:20:54.475Z,99.70
2022-09-06T04:23:22.887Z,99.80
2022-09-06T04:25:52.374Z,99.80
2022-09-06T04:28:20.945Z,99.70
2022-09-06T04:31:03.294Z,99.70
2022-09-06T04:33:33.735Z,99.70
2022-09-06T04:36:02.576Z,99.60
2022-09-06T04:38:34.419Z,99.50
2022-09-06T04:41:01.696Z,99.60
2022-09-06T04:43:28.861Z,99.50
2022-09-06T04:45:56.098Z,99.40
2022-09-06T04:48:23.430Z,99.50
2022-09-06T04:50:50.570Z,99.60
2022-09-06T04:53:17.755Z,99.70
2022-09-06T04:55:45.140Z,99.90
2022-09-06T04:58:12.372Z,99.70
2022-09-06T05:00:41.606Z,99.70
2022-09-06T05:03:09.918Z,99.70
2022-09-06T05:05:37.224Z,99.90
2022-09-06T05:08:04.992Z,99.70
2022-09-06T05:10:32.144Z,99.90
2022-09-06T05:12:59.343Z,99.90
2022-09-06T05:15:26.498Z,99.90
2022-09-06T05:17:53.693Z,99.90
2022-09-06T05:20:20.794Z,99.90
2022-09-06T05:22:56.717Z,99.90
2022-09-06T05:25:24.100Z,99.90
2022-09-06T05:27:51.168Z,99.90
2022-09-06T05:30:18.440Z,99.90
2022-09-06T05:32:45.860Z,99.90
2022-09-06T05:35:13.472Z,99.90
2022-09-06T05:37:40.679Z,99.90
2022-09-06T05:40:08.618Z,99.90
2022-09-06T05:42:35.927Z,99.90
2022-09-06T05:45:03.154Z,99.90
2022-09-06T05:47:34.419Z,99.90
2022-09-06T05:50:02.679Z,99.90
2022-09-06T05:52:30.433Z,99.90
2022-09-06T05:54:57.643Z,99.90
2022-09-06T05:57:24.782Z,99.90
2022-09-06T05:59:53.526Z,99.90
2022-09-06T06:02:24.253Z,99.90
2022-09-06T06:04:54.687Z,99.90
2022-09-06T06:07:22.097Z,99.90
2022-09-06T06:09:49.301Z,99.90
2022-09-06T06:12:16.500Z,99.90
2022-09-06T06:14:43.763Z,99.90
2022-09-06T06:17:11.003Z,99.90
2022-09-06T06:19:38.160Z,99.90
2022-09-06T06:22:05.510Z,99.90
2022-09-06T06:24:32.997Z,99.90
2022-09-06T06:27:00.084Z,99.90
2022-09-06T06:29:27.328Z,99.90
2022-09-06T06:31:54.505Z,99.90
2022-09-06T06:34:21.995Z,99.90
2022-09-06T06:36:49.292Z,99.90
2022-09-06T06:39:16.687Z,99.90
2022-09-06T06:41:43.903Z,99.90
2022-09-06T06:44:30.071Z,99.90
2022-09-06T06:46:58.816Z,99.90
2022-09-06T06:49:25.923Z,99.90
2022-09-06T06:51:53.482Z,99.90
2022-09-06T06:54:20.608Z,99.90
2022-09-06T06:56:47.765Z,99.90
2022-09-06T06:59:15.137Z,99.60
2022-09-06T07:01:42.398Z,99.40
2022-09-06T07:04:11.899Z,99.20
2022-09-06T07:12:31.271Z,98.90
2022-09-06T07:14:58.359Z,99.30
2022-09-06T07:17:25.606Z,99.40
2022-09-06T07:22:40.632Z,99.40
2022-09-06T07:25:09.830Z,99.40
2022-09-06T07:27:52.365Z,99.20
2022-09-06T07:30:20.272Z,99.30
2022-09-06T07:32:48.213Z,99.40
2022-09-06T07:35:15.544Z,99.40
2022-09-06T07:37:42.980Z,99.30
2022-09-06T07:40:10.748Z,99.30
2022-09-06T07:42:38.096Z,99.30
2022-09-06T07:45:06.306Z,99.20
2022-09-06T07:53:13.083Z,99.10
2022-09-06T07:55:43.253Z,98.80
2022-09-06T07:58:11.069Z,98.80
2022-09-06T08:00:41.108Z,98.90
2022-09-06T08:03:08.728Z,98.80
2022-09-06T08:11:10.913Z,98.80
2022-09-06T08:13:38.811Z,98.90
2022-09-06T08:16:08.530Z,98.70
2022-09-06T08:18:36.840Z,98.50
2022-09-06T08:21:15.338Z,98.20
2022-09-06T08:23:47.377Z,98.10
2022-09-06T08:26:16.111Z,98.20
2022-09-06T08:28:43.877Z,98.10
2022-09-06T08:31:16.012Z,98.10
2022-09-06T08:33:44.249Z,98.30
2022-09-06T08:36:12.037Z,97.90
2022-09-06T08:38:39.506Z,98.00
2022-09-06T08:41:21.100Z,98.10
2022-09-06T08:46:56.081Z,97.80
2022-09-06T08:49:27.031Z,97.60
2022-09-06T08:52:07.112Z,97.70
2022-09-06T08:54:47.561Z,97.90
2022-09-06T08:57:29.479Z,98.10
2022-09-06T09:00:02.036Z,98.20
2022-09-06T09:02:51.812Z,98.00
2022-09-06T09:05:23.699Z,97.60
2022-09-06T09:07:55.624Z,97.60
2022-09-06T09:10:32.599Z,97.50
2022-09-06T09:13:02.871Z,97.20
2022-09-06T09:15:40.383Z,96.70
2022-09-06T09:18:08.023Z,97.00
2022-09-06T09:20:37.127Z,96.80
2022-09-06T09:23:04.482Z,96.40
2022-09-06T09:25:33.820Z,96.50
2022-09-06T09:28:01.390Z,96.30
2022-09-06T09:30:52.075Z,96.30
2022-09-06T09:33:24.959Z,96.10
2022-09-06T09:35:52.547Z,96.30
2022-09-06T09:38:32.875Z,96.40
2022-09-06T09:41:05.693Z,96.60
2022-09-06T09:43:41.262Z,96.50
2022-09-06T09:46:24.898Z,96.10
2022-09-06T09:49:09.062Z,96.10
2022-09-06T09:51:45.014Z,95.50
2022-09-06T09:54:14.832Z,95.60
2022-09-06T09:56:48.386Z,95.30
2022-09-06T09:59:27.828Z,95.40
2022-09-06T10:02:00.014Z,95.00
2022-09-06T10:04:51.626Z,94.70
2022-09-06T10:07:20.341Z,94.20
2022-09-06T10:09:59.200Z,94.50
2022-09-06T10:12:38.948Z,94.80
2022-09-06T10:15:08.366Z,94.10
2022-09-06T10:17:47.433Z,94.10
2022-09-06T10:20:14.816Z,93.90
2022-09-06T10:22:59.547Z,93.60
2022-09-06T10:25:47.718Z,93.80
2022-09-06T10:28:34.169Z,94.00
2022-09-06T10:31:34.317Z,94.40
2022-09-06T10:34:16.888Z,94.20
2022-09-06T10:36:52.790Z,94.10
2022-09-06T10:39:30.047Z,94.30
2022-09-06T10:42:19.883Z,94.00
2022-09-06T10:45:11.776Z,94.00
2022-09-06T10:47:57.419Z,94.50
2022-09-06T10:50:56.394Z,93.80
2022-09-06T10:53:39.651Z,94.20
2022-09-06T10:56:32.600Z,93.80
2022-09-06T11:02:12.267Z,93.50
2022-09-06T11:07:31.160Z,93.50
2022-09-06T11:10:03.791Z,93.30
2022-09-06T11:12:37.379Z,93.10
2022-09-06T11:15:08.178Z,92.90
2022-09-06T11:17:41.332Z,93.00
2022-09-06T11:20:22.611Z,92.30
2022-09-06T11:23:05.952Z,91.80
2022-09-06T11:26:04.039Z,91.60
2022-09-06T11:28:43.140Z,92.60
2022-09-06T11:34:06.163Z,92.70
2022-09-06T11:36:51.788Z,92.00
2022-09-06T11:42:41.779Z,92.10
2022-09-06T11:45:12.041Z,91.60
2022-09-06T11:47:43.336Z,91.70
2022-09-06T11:50:26.211Z,91.40
2022-09-06T11:53:00.894Z,91.30
2022-09-06T11:55:45.320Z,91.30
2022-09-06T11:58:18.196Z,91.60
2022-09-06T12:00:46.745Z,91.50
2022-09-06T12:06:31.895Z,91.20
2022-09-06T12:09:00.065Z,91.50
2022-09-06T12:11:42.330Z,90.80
2022-09-06T12:14:28.215Z,90.70
2022-09-06T12:17:00.940Z,90.80
2022-09-06T12:19:52.364Z,90.70
2022-09-06T12:22:32.771Z,90.30
2022-09-06T12:25:03.956Z,90.50
2022-09-06T12:27:40.001Z,91.00
2022-09-06T12:30:11.489Z,90.90
2022-09-06T12:32:46.971Z,91.10
2022-09-06T12:38:18.449Z,91.10
2022-09-06T12:40:48.720Z,91.10
2022-09-06T12:43:17.336Z,91.60
2022-09-06T12:45:51.060Z,91.60
2022-09-06T12:48:28.565Z,91.50
2022-09-06T12:51:05.910Z,91.90
2022-09-06T12:53:34.473Z,92.00
2022-09-06T12:56:09.953Z,91.60
2022-09-06T12:58:38.724Z,91.40
2022-09-06T13:01:33.634Z,91.50
2022-09-06T13:04:20.176Z,91.40
2022-09-06T13:06:48.227Z,91.40
2022-09-06T13:09:20.396Z,91.30
2022-09-06T13:11:51.473Z,91.30
2022-09-06T13:14:24.449Z,91.60
2022-09-06T13:16:53.983Z,91.30
2022-09-06T13:19:37.681Z,91.20
2022-09-06T13:22:13.696Z,91.20
2022-09-06T13:24:47.668Z,91.10
2022-09-06T13:27:25.266Z,91.00
2022-09-06T13:29:56.786Z,90.80
2022-09-06T13:32:24.384Z,90.80
2022-09-06T13:35:01.244Z,91.00
2022-09-06T13:37:33.784Z,91.30
2022-09-06T13:40:05.785Z,90.70
2022-09-06T13:42:37.960Z,90.50
2022-09-06T13:45:26.920Z,90.90
2022-09-06T13:48:03.386Z,90.60
2022-09-06T13:50:41.749Z,90.50
2022-09-06T13:53:08.796Z,90.60
2022-09-06T13:55:35.925Z,91.00
2022-09-06T13:58:03.890Z,90.90
2022-09-06T14:00:31.288Z,91.00
2022-09-06T14:02:59.029Z,90.70
2022-09-06T14:05:26.400Z,90.90
2022-09-06T14:07:54.278Z,90.70
2022-09-06T14:10:23.871Z,90.80
2022-09-06T14:12:53.141Z,90.20
2022-09-06T14:15:20.229Z,90.70
2022-09-06T14:17:47.411Z,90.80
2022-09-06T14:20:14.584Z,90.70
2022-09-06T14:22:41.728Z,91.00
2022-09-06T14:25:09.460Z,90.70
2022-09-06T14:27:36.666Z,90.70
2022-09-06T14:30:04.886Z,90.60
2022-09-06T14:32:32.101Z,90.40
2022-09-06T14:35:00.320Z,90.40
2022-09-06T14:37:27.548Z,90.50
2022-09-06T14:39:54.746Z,90.40
2022-09-06T14:42:24.619Z,90.60
2022-09-06T14:44:52.067Z,90.60
2022-09-06T14:47:19.245Z,91.00
2022-09-06T14:49:46.335Z,90.50
2022-09-06T14:52:13.588Z,90.70
2022-09-06T14:54:40.959Z,90.80
2022-09-06T14:57:08.223Z,90.90
2022-09-06T14:59:35.483Z,91.10
2022-09-06T15:02:02.598Z,91.20
2022-09-06T15:04:29.960Z,91.10
2022-09-06T15:06:57.169Z,91.10
2022-09-06T15:09:24.375Z,91.10
2022-09-06T15:11:52.546Z,91.10
2022-09-06T15:14:25.219Z,90.90
2022-09-06T15:16:56.500Z,90.80
2022-09-06T15:19:28.470Z,91.20
2022-09-06T15:21:57.237Z,91.20
2022-09-06T15:24:24.731Z,91.40
2022-09-06T15:26:52.868Z,91.60
2022-09-06T15:29:20.586Z,91.80
2022-09-06T15:31:50.569Z,92.10
2022-09-06T15:34:19.451Z,92.40
2022-09-06T15:36:47.615Z,92.10
2022-09-06T15:39:15.365Z,92.20
2022-09-06T15:41:42.825Z,92.30
2022-09-06T15:44:15.142Z,92.40
2022-09-06T15:46:51.653Z,92.60
2022-09-06T15:49:31.732Z,92.70
2022-09-06T15:52:01.590Z,92.90
2022-09-06T15:54:47.942Z,93.20
2022-09-06T15:57:16.840Z,93.40
2022-09-06T15:59:44.542Z,93.30
2022-09-06T16:02:12.072Z,93.20
2022-09-06T16:04:39.528Z,93.30
2022-09-06T16:07:07.266Z,93.80
2022-09-06T16:09:34.657Z,93.70
2022-09-06T16:12:01.858Z,93.50
2022-09-06T16:14:29.304Z,93.60
2022-09-06T16:16:57.471Z,93.60
2022-09-06T16:19:28.084Z,93.60
2022-09-06T16:21:55.242Z,93.50
2022-09-06T16:24:23.011Z,93.60
2022-09-06T16:26:50.811Z,93.70
2022-09-06T16:29:19.079Z,93.60
2022-09-06T16:31:47.136Z,93.60
2022-09-06T16:34:15.317Z,93.60
2022-09-06T16:36:42.647Z,93.60
2022-09-06T16:39:11.023Z,93.50
2022-09-06T16:41:42.868Z,93.40
2022-09-06T16:44:16.954Z,93.40
2022-09-06T16:46:46.753Z,93.40
2022-09-06T16:49:16.803Z,93.40
2022-09-06T16:51:44.493Z,93.30
2022-09-06T16:54:11.952Z,93.20
2022-09-06T16:56:40.056Z,93.30
2022-09-06T16:59:09.373Z,93.60
2022-09-06T17:01:41.363Z,93.90
2022-09-06T17:04:09.608Z,94.10
2022-09-06T17:06:44.384Z,94.10
2022-09-06T17:09:19.183Z,94.30
2022-09-06T17:11:49.934Z,94.10
2022-09-06T17:14:17.726Z,93.90
2022-09-06T17:17:04.073Z,94.10
2022-09-06T17:19:36.656Z,93.80
2022-09-06T17:22:04.879Z,94.00
2022-09-06T17:24:32.155Z,93.90
2022-09-06T17:26:59.476Z,93.90
2022-09-06T17:29:28.144Z,94.20
2022-09-06T17:31:56.037Z,94.40
2022-09-06T17:34:23.157Z,94.40
2022-09-06T17:36:50.617Z,94.70
2022-09-06T17:39:21.133Z,94.50
2022-09-06T17:41:50.481Z,94.90
2022-09-06T17:44:19.768Z,95.00
2022-09-06T17:47:09.098Z,94.80
2022-09-06T17:49:35.558Z,95.30
2022-09-06T17:52:02.912Z,95.20
2022-09-06T17:54:31.829Z,95.40
2022-09-06T17:56:59.212Z,95.30
2022-09-06T17:59:26.464Z,95.50
2022-09-06T18:01:53.703Z,95.40
2022-09-06T18:04:20.999Z,95.60
2022-09-06T18:06:48.170Z,95.30
2022-09-06T18:09:17.625Z,95.50
2022-09-06T18:11:46.826Z,95.30
2022-09-06T18:14:17.534Z,95.50
2022-09-06T18:16:49.410Z,95.60
2022-09-06T18:19:18.089Z,95.50
2022-09-06T18:21:46.045Z,95.70
2022-09-06T18:24:16.051Z,95.80
2022-09-06T18:26:43.615Z,95.90
2022-09-06T18:29:14.698Z,96.00
2022-09-06T18:31:42.852Z,96.20
2022-09-06T18:34:10.830Z,96.20
2022-09-06T18:36:39.312Z,96.30
2022-09-06T18:39:06.884Z,96.10
2022-09-06T18:41:52.914Z,96.10
2022-09-06T18:44:20.624Z,96.20
2022-09-06T18:46:48.312Z,96.30
2022-09-06T18:49:16.379Z,96.10
2022-09-06T18:51:44.681Z,96.30
2022-09-06T18:54:11.994Z,96.40
2022-09-06T18:56:39.238Z,96.60
2022-09-06T18:59:07.187Z,96.50
2022-09-06T19:01:35.201Z,96.60
2022-09-06T19:04:22.255Z,96.40
2022-09-06T19:06:49.571Z,96.50
2022-09-06T19:09:17.610Z,96.50
2022-09-06T19:11:47.357Z,96.40
2022-09-06T19:14:15.203Z,96.70
2022-09-06T19:16:42.501Z,96.80
2022-09-06T19:19:11.698Z,96.60
2022-09-06T19:21:42.081Z,96.50
2022-09-06T19:24:11.300Z,96.60
2022-09-06T19:26:41.701Z,96.60
2022-09-06T19:29:13.536Z,96.80
2022-09-06T19:31:41.288Z,97.10
2022-09-06T19:34:08.659Z,97.60
2022-09-06T19:36:36.377Z,98.20
2022-09-06T19:39:08.241Z,99.00
2022-09-06T19:41:43.074Z,99.70
2022-09-06T19:44:11.398Z,99.60
2022-09-06T19:46:44.921Z,96.10
2022-09-06T19:49:19.117Z,96.20
2022-09-06T19:51:48.762Z,96.10
2022-09-06T19:54:16.450Z,97.10
2022-09-06T19:56:44.373Z,97.70
2022-09-06T19:59:13.323Z,98.00
2022-09-06T20:01:42.496Z,98.30
2022-09-06T20:04:11.545Z,98.30
2022-09-06T20:06:39.283Z,98.40
2022-09-06T20:09:09.021Z,98.00
2022-09-06T20:11:37.973Z,98.10
2022-09-06T20:14:05.600Z,98.10
2022-09-06T20:16:33.192Z,98.10
2022-09-06T20:19:00.619Z,98.20
2022-09-06T20:21:28.959Z,98.30
2022-09-06T20:23:59.100Z,98.30
2022-09-06T20:26:28.864Z,98.30
2022-09-06T20:29:02.529Z,98.40
2022-09-06T20:31:31.125Z,98.70
2022-09-06T20:34:02.674Z,98.60
2022-09-06T20:36:30.251Z,99.00
2022-09-06T20:38:57.589Z,99.50
2022-09-06T20:41:26.437Z,99.90
2022-09-06T20:43:55.847Z,99.90
2022-09-06T20:46:31.705Z,99.90
2022-09-06T20:49:02.007Z,99.90
2022-09-06T20:51:29.647Z,99.90
2022-09-06T20:53:58.800Z,99.90
2022-09-06T20:56:28.651Z,99.90
2022-09-06T20:59:01.104Z,99.90
2022-09-06T21:01:35.133Z,99.90
2022-09-06T21:04:04.741Z,99.90
2022-09-06T21:06:34.503Z,99.90
2022-09-06T21:09:02.983Z,99.90
2022-09-06T21:11:30.137Z,99.90
2022-09-06T21:13:57.880Z,99.90
2022-09-06T21:16:28.222Z,99.90
2022-09-06T21:18:57.753Z,99.90
2022-09-06T21:21:26.130Z,99.90
2022-09-06T21:23:53.952Z,99.90
2022-09-06T21:26:22.379Z,99.90
2022-09-06T21:28:49.881Z,99.90
2022-09-06T21:31:21.884Z,99.90
2022-09-06T21:33:57.587Z,99.90
2022-09-06T21:36:30.398Z,99.90
2022-09-06T21:39:00.499Z,99.90
2022-09-06T21:41:28.705Z,99.90
2022-09-06T21:44:01.162Z,99.90
2022-09-06T21:46:34.078Z,99.90
2022-09-06T21:49:04.415Z,99.90
2022-09-06T21:51:32.603Z,99.90
2022-09-06T21:54:03.473Z,99.90
2022-09-06T21:56:32.359Z,99.90
2022-09-06T21:58:59.767Z,99.90
2022-09-06T22:01:29.626Z,99.90
2022-09-06T22:03:57.325Z,99.90
2022-09-06T22:06:28.668Z,99.90
2022-09-06T22:08:57.727Z,99.90
2022-09-06T22:11:30.393Z,99.90
2022-09-06T22:14:02.411Z,99.90
2022-09-06T22:16:33.087Z,99.90
2022-09-06T22:19:00.734Z,99.90
2022-09-06T22:21:27.949Z,99.90
2022-09-06T22:24:00.443Z,99.90
2022-09-06T22:26:29.617Z,99.90
2022-09-06T22:29:02.364Z,99.90
